sensor_id;sensor_type;location;lat;lon;timestamp;temperature;humidity
67141;DHT22;54058;52.010;5.546;2023-04-03T00:01:21;4.80;75.50
67141;DHT22;54058;52.010;5.546;2023-04-03T00:03:47;4.80;74.90
67141;DHT22;54058;52.010;5.546;2023-04-03T00:06:12;4.80;74.30
67141;DHT22;54058;52.010;5.546;2023-04-03T00:08:38;4.70;74.90
67141;DHT22;54058;52.010;5.546;2023-04-03T00:11:04;4.70;75.60
67141;DHT22;54058;52.010;5.546;2023-04-03T00:13:30;4.70;75.20
67141;DHT22;54058;52.010;5.546;2023-04-03T00:15:57;4.70;74.80
67141;DHT22;54058;52.010;5.546;2023-04-03T00:18:23;4.60;74.80
67141;DHT22;54058;52.010;5.546;2023-04-03T00:20:49;4.60;75.10
67141;DHT22;54058;52.010;5.546;2023-04-03T00:23:14;4.60;74.90
67141;DHT22;54058;52.010;5.546;2023-04-03T00:25:40;4.60;74.80
67141;DHT22;54058;52.010;5.546;2023-04-03T00:28:06;4.60;76.00
67141;DHT22;54058;52.010;5.546;2023-04-03T00:30:31;4.60;75.80
67141;DHT22;54058;52.010;5.546;2023-04-03T00:32:57;4.60;75.80
67141;DHT22;54058;52.010;5.546;2023-04-03T00:35:23;4.60;75.70
67141;DHT22;54058;52.010;5.546;2023-04-03T00:37:53;4.60;74.90
67141;DHT22;54058;52.010;5.546;2023-04-03T00:40:20;4.60;76.80
67141;DHT22;54058;52.010;5.546;2023-04-03T00:42:46;4.50;76.30
67141;DHT22;54058;52.010;5.546;2023-04-03T00:47:42;4.50;76.30
67141;DHT22;54058;52.010;5.546;2023-04-03T00:50:07;4.50;75.90
67141;DHT22;54058;52.010;5.546;2023-04-03T00:52:33;4.50;75.20
67141;DHT22;54058;52.010;5.546;2023-04-03T00:55:00;4.60;75.40
67141;DHT22;54058;52.010;5.546;2023-04-03T00:57:27;4.60;75.90
67141;DHT22;54058;52.010;5.546;2023-04-03T00:59:57;4.60;75.80
67141;DHT22;54058;52.010;5.546;2023-04-03T01:02:25;4.60;76.40
67141;DHT22;54058;52.010;5.546;2023-04-03T01:04:51;4.60;76.40
67141;DHT22;54058;52.010;5.546;2023-04-03T01:07:18;4.60;76.70
67141;DHT22;54058;52.010;5.546;2023-04-03T01:09:44;4.60;76.00
67141;DHT22;54058;52.010;5.546;2023-04-03T01:12:14;4.60;76.70
67141;DHT22;54058;52.010;5.546;2023-04-03T01:14:42;4.60;76.00
67141;DHT22;54058;52.010;5.546;2023-04-03T01:19:56;4.70;77.00
67141;DHT22;54058;52.010;5.546;2023-04-03T01:22:29;4.70;75.70
67141;DHT22;54058;52.010;5.546;2023-04-03T01:24:56;4.70;75.80
67141;DHT22;54058;52.010;5.546;2023-04-03T01:27:21;4.70;75.10
67141;DHT22;54058;52.010;5.546;2023-04-03T01:29:47;4.60;75.10
67141;DHT22;54058;52.010;5.546;2023-04-03T01:32:12;4.60;76.30
67141;DHT22;54058;52.010;5.546;2023-04-03T01:34:38;4.50;76.20
67141;DHT22;54058;52.010;5.546;2023-04-03T01:37:03;4.60;76.30
67141;DHT22;54058;52.010;5.546;2023-04-03T01:39:29;4.50;75.90
67141;DHT22;54058;52.010;5.546;2023-04-03T01:41:54;4.50;76.20
67141;DHT22;54058;52.010;5.546;2023-04-03T01:44:21;4.50;76.10
67141;DHT22;54058;52.010;5.546;2023-04-03T01:46:46;4.50;76.40
67141;DHT22;54058;52.010;5.546;2023-04-03T01:49:14;4.50;76.80
67141;DHT22;54058;52.010;5.546;2023-04-03T01:51:43;4.50;77.20
67141;DHT22;54058;52.010;5.546;2023-04-03T01:54:08;4.50;77.50
67141;DHT22;54058;52.010;5.546;2023-04-03T01:56:34;4.50;77.10
67141;DHT22;54058;52.010;5.546;2023-04-03T01:58:59;4.60;77.20
67141;DHT22;54058;52.010;5.546;2023-04-03T02:01:25;4.60;77.50
67141;DHT22;54058;52.010;5.546;2023-04-03T02:03:51;4.60;76.60
67141;DHT22;54058;52.010;5.546;2023-04-03T02:06:16;4.50;77.00
67141;DHT22;54058;52.010;5.546;2023-04-03T02:08:42;4.60;77.40
67141;DHT22;54058;52.010;5.546;2023-04-03T02:11:07;4.50;77.50
67141;DHT22;54058;52.010;5.546;2023-04-03T02:13:33;4.60;77.80
67141;DHT22;54058;52.010;5.546;2023-04-03T02:15:58;4.60;78.40
67141;DHT22;54058;52.010;5.546;2023-04-03T02:18:25;4.60;78.40
67141;DHT22;54058;52.010;5.546;2023-04-03T02:20:51;4.70;78.80
67141;DHT22;54058;52.010;5.546;2023-04-03T02:23:16;4.70;79.30
67141;DHT22;54058;52.010;5.546;2023-04-03T02:25:42;4.70;79.50
67141;DHT22;54058;52.010;5.546;2023-04-03T02:28:08;4.80;79.40
67141;DHT22;54058;52.010;5.546;2023-04-03T02:30:33;4.80;78.40
67141;DHT22;54058;52.010;5.546;2023-04-03T02:32:59;4.70;78.20
67141;DHT22;54058;52.010;5.546;2023-04-03T02:35:24;4.70;79.00
67141;DHT22;54058;52.010;5.546;2023-04-03T02:37:50;4.70;79.20
67141;DHT22;54058;52.010;5.546;2023-04-03T02:40:16;4.70;79.60
67141;DHT22;54058;52.010;5.546;2023-04-03T02:42:41;4.70;79.50
67141;DHT22;54058;52.010;5.546;2023-04-03T02:45:07;4.80;79.60
67141;DHT22;54058;52.010;5.546;2023-04-03T02:47:32;4.80;79.10
67141;DHT22;54058;52.010;5.546;2023-04-03T02:49:58;4.70;79.20
67141;DHT22;54058;52.010;5.546;2023-04-03T02:52:23;4.80;79.40
67141;DHT22;54058;52.010;5.546;2023-04-03T02:54:49;4.70;79.00
67141;DHT22;54058;52.010;5.546;2023-04-03T02:57:15;4.60;78.70
67141;DHT22;54058;52.010;5.546;2023-04-03T02:59:41;4.60;78.90
67141;DHT22;54058;52.010;5.546;2023-04-03T03:02:07;4.60;79.30
67141;DHT22;54058;52.010;5.546;2023-04-03T03:04:33;4.60;79.50
67141;DHT22;54058;52.010;5.546;2023-04-03T03:06:58;4.60;78.80
67141;DHT22;54058;52.010;5.546;2023-04-03T03:09:25;4.50;79.20
67141;DHT22;54058;52.010;5.546;2023-04-03T03:11:56;4.50;79.50
67141;DHT22;54058;52.010;5.546;2023-04-03T03:14:22;4.50;79.60
67141;DHT22;54058;52.010;5.546;2023-04-03T03:16:49;4.50;79.30
67141;DHT22;54058;52.010;5.546;2023-04-03T03:19:30;4.50;79.40
67141;DHT22;54058;52.010;5.546;2023-04-03T03:21:55;4.50;80.00
67141;DHT22;54058;52.010;5.546;2023-04-03T03:24:26;4.50;80.40
67141;DHT22;54058;52.010;5.546;2023-04-03T03:26:52;4.50;80.80
67141;DHT22;54058;52.010;5.546;2023-04-03T03:29:17;4.50;81.00
67141;DHT22;54058;52.010;5.546;2023-04-03T03:31:43;4.60;81.20
67141;DHT22;54058;52.010;5.546;2023-04-03T03:34:08;4.60;81.00
67141;DHT22;54058;52.010;5.546;2023-04-03T03:36:34;4.50;80.80
67141;DHT22;54058;52.010;5.546;2023-04-03T03:38:59;4.50;80.80
67141;DHT22;54058;52.010;5.546;2023-04-03T03:41:25;4.50;80.90
67141;DHT22;54058;52.010;5.546;2023-04-03T03:43:51;4.50;81.00
67141;DHT22;54058;52.010;5.546;2023-04-03T03:46:16;4.50;81.10
67141;DHT22;54058;52.010;5.546;2023-04-03T03:48:42;4.40;80.70
67141;DHT22;54058;52.010;5.546;2023-04-03T03:51:07;4.40;80.90
67141;DHT22;54058;52.010;5.546;2023-04-03T03:53:33;4.30;80.00
67141;DHT22;54058;52.010;5.546;2023-04-03T03:55:59;4.20;80.70
67141;DHT22;54058;52.010;5.546;2023-04-03T03:58:24;4.20;81.30
67141;DHT22;54058;52.010;5.546;2023-04-03T04:00:50;4.30;81.50
67141;DHT22;54058;52.010;5.546;2023-04-03T04:03:15;4.30;81.70
67141;DHT22;54058;52.010;5.546;2023-04-03T04:05:41;4.30;80.60
67141;DHT22;54058;52.010;5.546;2023-04-03T04:08:06;4.30;81.40
67141;DHT22;54058;52.010;5.546;2023-04-03T04:10:32;4.30;81.60
67141;DHT22;54058;52.010;5.546;2023-04-03T04:12:58;4.30;81.50
67141;DHT22;54058;52.010;5.546;2023-04-03T04:15:24;4.30;81.10
67141;DHT22;54058;52.010;5.546;2023-04-03T04:17:51;4.30;81.40
67141;DHT22;54058;52.010;5.546;2023-04-03T04:20:16;4.30;81.50
67141;DHT22;54058;52.010;5.546;2023-04-03T04:22:42;4.30;81.00
67141;DHT22;54058;52.010;5.546;2023-04-03T04:25:07;4.20;80.80
67141;DHT22;54058;52.010;5.546;2023-04-03T04:27:33;4.10;80.60
67141;DHT22;54058;52.010;5.546;2023-04-03T04:29:59;4.00;80.70
67141;DHT22;54058;52.010;5.546;2023-04-03T04:32:26;4.10;81.00
67141;DHT22;54058;52.010;5.546;2023-04-03T04:34:51;4.00;81.00
67141;DHT22;54058;52.010;5.546;2023-04-03T04:37:17;3.90;80.90
67141;DHT22;54058;52.010;5.546;2023-04-03T04:39:42;3.90;81.00
67141;DHT22;54058;52.010;5.546;2023-04-03T04:42:08;3.80;81.10
67141;DHT22;54058;52.010;5.546;2023-04-03T04:44:38;3.80;81.50
67141;DHT22;54058;52.010;5.546;2023-04-03T04:47:04;3.80;81.50
67141;DHT22;54058;52.010;5.546;2023-04-03T04:49:29;3.70;81.60
67141;DHT22;54058;52.010;5.546;2023-04-03T04:51:55;3.60;81.80
67141;DHT22;54058;52.010;5.546;2023-04-03T04:54:20;3.50;82.00
67141;DHT22;54058;52.010;5.546;2023-04-03T04:56:46;3.40;82.30
67141;DHT22;54058;52.010;5.546;2023-04-03T04:59:11;3.30;82.80
67141;DHT22;54058;52.010;5.546;2023-04-03T05:01:37;3.40;83.10
67141;DHT22;54058;52.010;5.546;2023-04-03T05:04:03;3.40;83.00
67141;DHT22;54058;52.010;5.546;2023-04-03T05:06:28;3.30;83.60
67141;DHT22;54058;52.010;5.546;2023-04-03T05:08:55;3.20;83.90
67141;DHT22;54058;52.010;5.546;2023-04-03T05:11:21;3.10;84.00
67141;DHT22;54058;52.010;5.546;2023-04-03T05:13:46;3.10;84.20
67141;DHT22;54058;52.010;5.546;2023-04-03T05:16:12;3.10;84.20
67141;DHT22;54058;52.010;5.546;2023-04-03T05:18:38;3.10;84.10
67141;DHT22;54058;52.010;5.546;2023-04-03T05:21:03;3.10;84.10
67141;DHT22;54058;52.010;5.546;2023-04-03T05:23:33;3.10;84.10
67141;DHT22;54058;52.010;5.546;2023-04-03T05:25:59;3.10;84.10
67141;DHT22;54058;52.010;5.546;2023-04-03T05:28:24;3.10;83.90
67141;DHT22;54058;52.010;5.546;2023-04-03T05:30:53;3.10;84.00
67141;DHT22;54058;52.010;5.546;2023-04-03T05:33:20;3.10;84.00
67141;DHT22;54058;52.010;5.546;2023-04-03T05:35:46;3.10;83.90
67141;DHT22;54058;52.010;5.546;2023-04-03T05:38:14;3.10;83.90
67141;DHT22;54058;52.010;5.546;2023-04-03T05:40:40;3.10;83.70
67141;DHT22;54058;52.010;5.546;2023-04-03T05:43:05;3.10;83.70
67141;DHT22;54058;52.010;5.546;2023-04-03T05:45:31;3.10;83.60
67141;DHT22;54058;52.010;5.546;2023-04-03T05:47:56;3.20;83.50
67141;DHT22;54058;52.010;5.546;2023-04-03T05:50:22;3.20;83.50
67141;DHT22;54058;52.010;5.546;2023-04-03T05:52:48;3.30;83.50
67141;DHT22;54058;52.010;5.546;2023-04-03T05:55:15;3.30;83.30
67141;DHT22;54058;52.010;5.546;2023-04-03T05:57:40;3.40;83.70
67141;DHT22;54058;52.010;5.546;2023-04-03T06:00:07;3.40;82.80
67141;DHT22;54058;52.010;5.546;2023-04-03T06:02:32;3.50;82.60
67141;DHT22;54058;52.010;5.546;2023-04-03T06:04:58;3.60;82.30
67141;DHT22;54058;52.010;5.546;2023-04-03T06:07:24;3.60;82.30
67141;DHT22;54058;52.010;5.546;2023-04-03T06:09:54;3.60;82.00
67141;DHT22;54058;52.010;5.546;2023-04-03T06:12:21;3.60;81.70
67141;DHT22;54058;52.010;5.546;2023-04-03T06:14:46;3.60;82.10
67141;DHT22;54058;52.010;5.546;2023-04-03T06:17:13;3.70;82.20
67141;DHT22;54058;52.010;5.546;2023-04-03T06:19:38;3.80;81.50
67141;DHT22;54058;52.010;5.546;2023-04-03T06:22:04;3.80;80.90
67141;DHT22;54058;52.010;5.546;2023-04-03T06:24:30;3.90;81.20
67141;DHT22;54058;52.010;5.546;2023-04-03T06:26:56;3.90;81.20
67141;DHT22;54058;52.010;5.546;2023-04-03T06:29:22;4.00;80.60
67141;DHT22;54058;52.010;5.546;2023-04-03T06:31:47;3.90;80.20
67141;DHT22;54058;52.010;5.546;2023-04-03T06:34:13;4.00;80.50
67141;DHT22;54058;52.010;5.546;2023-04-03T06:36:39;4.10;79.90
67141;DHT22;54058;52.010;5.546;2023-04-03T06:39:05;4.10;80.10
67141;DHT22;54058;52.010;5.546;2023-04-03T06:41:31;4.10;79.40
67141;DHT22;54058;52.010;5.546;2023-04-03T06:43:56;4.10;79.60
67141;DHT22;54058;52.010;5.546;2023-04-03T06:46:23;4.10;79.00
67141;DHT22;54058;52.010;5.546;2023-04-03T06:48:49;4.10;79.50
67141;DHT22;54058;52.010;5.546;2023-04-03T06:51:19;4.00;78.50
67141;DHT22;54058;52.010;5.546;2023-04-03T06:53:46;4.00;79.30
67141;DHT22;54058;52.010;5.546;2023-04-03T06:56:12;4.10;79.20
67141;DHT22;54058;52.010;5.546;2023-04-03T06:58:37;4.20;79.80
67141;DHT22;54058;52.010;5.546;2023-04-03T07:01:03;4.30;80.00
67141;DHT22;54058;52.010;5.546;2023-04-03T07:03:28;5.00;79.60
67141;DHT22;54058;52.010;5.546;2023-04-03T07:05:54;5.40;77.60
67141;DHT22;54058;52.010;5.546;2023-04-03T07:08:19;5.80;77.10
67141;DHT22;54058;52.010;5.546;2023-04-03T07:10:45;6.10;74.10
67141;DHT22;54058;52.010;5.546;2023-04-03T07:13:11;5.70;73.20
67141;DHT22;54058;52.010;5.546;2023-04-03T07:15:36;5.70;72.70
67141;DHT22;54058;52.010;5.546;2023-04-03T07:18:02;5.70;73.60
67141;DHT22;54058;52.010;5.546;2023-04-03T07:20:27;6.10;74.90
67141;DHT22;54058;52.010;5.546;2023-04-03T07:22:53;6.30;72.90
67141;DHT22;54058;52.010;5.546;2023-04-03T07:25:18;6.50;73.40
67141;DHT22;54058;52.010;5.546;2023-04-03T07:27:44;6.50;71.00
67141;DHT22;54058;52.010;5.546;2023-04-03T07:30:10;6.20;69.60
67141;DHT22;54058;52.010;5.546;2023-04-03T07:32:35;6.30;70.70
67141;DHT22;54058;52.010;5.546;2023-04-03T07:35:02;6.30;70.50
67141;DHT22;54058;52.010;5.546;2023-04-03T07:37:27;6.20;67.80
67141;DHT22;54058;52.010;5.546;2023-04-03T07:39:53;6.10;69.60
67141;DHT22;54058;52.010;5.546;2023-04-03T07:42:20;6.20;69.20
67141;DHT22;54058;52.010;5.546;2023-04-03T07:44:45;6.30;66.70
67141;DHT22;54058;52.010;5.546;2023-04-03T07:47:11;6.50;67.90
67141;DHT22;54058;52.010;5.546;2023-04-03T07:49:38;6.70;68.30
67141;DHT22;54058;52.010;5.546;2023-04-03T07:52:05;7.00;67.10
67141;DHT22;54058;52.010;5.546;2023-04-03T07:54:32;7.40;66.10
67141;DHT22;54058;52.010;5.546;2023-04-03T07:56:57;7.60;63.50
67141;DHT22;54058;52.010;5.546;2023-04-03T07:59:23;7.70;63.60
67141;DHT22;54058;52.010;5.546;2023-04-03T08:01:48;7.90;63.50
67141;DHT22;54058;52.010;5.546;2023-04-03T08:04:14;7.90;65.00
67141;DHT22;54058;52.010;5.546;2023-04-03T08:06:39;7.90;63.50
67141;DHT22;54058;52.010;5.546;2023-04-03T08:09:05;8.00;62.40
67141;DHT22;54058;52.010;5.546;2023-04-03T08:11:30;8.00;64.50
67141;DHT22;54058;52.010;5.546;2023-04-03T08:13:56;7.80;60.90
67141;DHT22;54058;52.010;5.546;2023-04-03T08:16:22;7.70;60.50
67141;DHT22;54058;52.010;5.546;2023-04-03T08:18:48;7.60;63.00
67141;DHT22;54058;52.010;5.546;2023-04-03T08:21:14;7.60;59.90
67141;DHT22;54058;52.010;5.546;2023-04-03T08:23:40;7.50;58.60
67141;DHT22;54058;52.010;5.546;2023-04-03T08:26:09;7.50;59.80
67141;DHT22;54058;52.010;5.546;2023-04-03T08:28:35;7.60;58.60
67141;DHT22;54058;52.010;5.546;2023-04-03T08:31:09;7.60;56.30
67141;DHT22;54058;52.010;5.546;2023-04-03T08:33:36;7.50;61.30
67141;DHT22;54058;52.010;5.546;2023-04-03T08:36:03;7.60;59.90
67141;DHT22;54058;52.010;5.546;2023-04-03T08:38:28;7.60;53.00
67141;DHT22;54058;52.010;5.546;2023-04-03T08:41:29;7.60;57.00
67141;DHT22;54058;52.010;5.546;2023-04-03T08:46:13;7.90;57.40
67141;DHT22;54058;52.010;5.546;2023-04-03T08:48:41;8.10;53.70
67141;DHT22;54058;52.010;5.546;2023-04-03T08:51:17;8.40;50.60
67141;DHT22;54058;52.010;5.546;2023-04-03T08:53:51;8.60;51.50
67141;DHT22;54058;52.010;5.546;2023-04-03T08:56:20;8.80;51.80
67141;DHT22;54058;52.010;5.546;2023-04-03T08:58:50;8.70;47.60
67141;DHT22;54058;52.010;5.546;2023-04-03T09:01:23;8.90;49.60
67141;DHT22;54058;52.010;5.546;2023-04-03T09:03:50;9.00;47.80
67141;DHT22;54058;52.010;5.546;2023-04-03T09:06:23;9.00;52.40
67141;DHT22;54058;52.010;5.546;2023-04-03T09:09:04;8.80;45.20
67141;DHT22;54058;52.010;5.546;2023-04-03T09:11:40;8.60;44.60
67141;DHT22;54058;52.010;5.546;2023-04-03T09:17:26;8.60;47.00
67141;DHT22;54058;52.010;5.546;2023-04-03T09:19:57;8.70;49.60
67141;DHT22;54058;52.010;5.546;2023-04-03T09:22:24;8.90;44.60
67141;DHT22;54058;52.010;5.546;2023-04-03T09:24:52;9.00;46.50
67141;DHT22;54058;52.010;5.546;2023-04-03T09:27:21;9.00;45.10
67141;DHT22;54058;52.010;5.546;2023-04-03T09:29:46;9.10;45.70
67141;DHT22;54058;52.010;5.546;2023-04-03T09:32:18;9.20;42.80
67141;DHT22;54058;52.010;5.546;2023-04-03T09:34:44;9.50;41.60
67141;DHT22;54058;52.010;5.546;2023-04-03T09:37:10;9.70;40.00
67141;DHT22;54058;52.010;5.546;2023-04-03T09:39:50;9.70;39.00
67141;DHT22;54058;52.010;5.546;2023-04-03T09:42:18;9.70;38.40
67141;DHT22;54058;52.010;5.546;2023-04-03T09:44:44;9.70;36.90
67141;DHT22;54058;52.010;5.546;2023-04-03T09:49:43;9.70;41.10
67141;DHT22;54058;52.010;5.546;2023-04-03T09:52:19;9.80;39.10
67141;DHT22;54058;52.010;5.546;2023-04-03T09:54:45;9.90;32.30
67141;DHT22;54058;52.010;5.546;2023-04-03T09:57:11;9.90;39.90
67141;DHT22;54058;52.010;5.546;2023-04-03T09:59:40;9.90;38.10
67141;DHT22;54058;52.010;5.546;2023-04-03T10:07:52;10.10;33.80
67141;DHT22;54058;52.010;5.546;2023-04-03T10:10:31;10.20;37.60
67141;DHT22;54058;52.010;5.546;2023-04-03T10:15:51;10.00;31.20
67141;DHT22;54058;52.010;5.546;2023-04-03T10:20:51;10.00;33.60
67141;DHT22;54058;52.010;5.546;2023-04-03T10:23:18;10.00;37.40
67141;DHT22;54058;52.010;5.546;2023-04-03T10:26:01;10.10;35.40
67141;DHT22;54058;52.010;5.546;2023-04-03T10:28:51;10.10;35.70
67141;DHT22;54058;52.010;5.546;2023-04-03T10:31:26;10.10;37.60
67141;DHT22;54058;52.010;5.546;2023-04-03T10:36:45;10.40;35.70
67141;DHT22;54058;52.010;5.546;2023-04-03T10:39:19;10.40;35.40
67141;DHT22;54058;52.010;5.546;2023-04-03T10:46:58;10.30;38.60
67141;DHT22;54058;52.010;5.546;2023-04-03T10:49:42;10.40;41.50
67141;DHT22;54058;52.010;5.546;2023-04-03T10:52:30;10.40;39.60
67141;DHT22;54058;52.010;5.546;2023-04-03T10:55:16;10.50;45.50
67141;DHT22;54058;52.010;5.546;2023-04-03T10:57:47;10.40;39.70
67141;DHT22;54058;52.010;5.546;2023-04-03T11:00:48;10.40;40.00
67141;DHT22;54058;52.010;5.546;2023-04-03T11:03:09;10.50;40.00
67141;DHT22;54058;52.010;5.546;2023-04-03T11:05:40;10.40;40.40
67141;DHT22;54058;52.010;5.546;2023-04-03T11:10:50;10.40;40.60
67141;DHT22;54058;52.010;5.546;2023-04-03T11:13:24;10.40;39.20
67141;DHT22;54058;52.010;5.546;2023-04-03T11:15:51;10.60;42.50
67141;DHT22;54058;52.010;5.546;2023-04-03T11:18:31;10.70;40.00
67141;DHT22;54058;52.010;5.546;2023-04-03T11:21:00;10.60;39.90
67141;DHT22;54058;52.010;5.546;2023-04-03T11:23:31;10.60;41.60
67141;DHT22;54058;52.010;5.546;2023-04-03T11:26:01;10.50;41.00
67141;DHT22;54058;52.010;5.546;2023-04-03T11:28:27;10.50;38.60
67141;DHT22;54058;52.010;5.546;2023-04-03T11:33:28;10.60;42.40
67141;DHT22;54058;52.010;5.546;2023-04-03T11:36:42;10.60;41.70
67141;DHT22;54058;52.010;5.546;2023-04-03T11:38:43;10.60;41.50
67141;DHT22;54058;52.010;5.546;2023-04-03T11:41:10;10.60;43.40
67141;DHT22;54058;52.010;5.546;2023-04-03T11:43:41;10.70;43.70
67141;DHT22;54058;52.010;5.546;2023-04-03T11:46:07;10.70;41.70
67141;DHT22;54058;52.010;5.546;2023-04-03T11:53:42;10.70;47.00
67141;DHT22;54058;52.010;5.546;2023-04-03T11:56:29;10.70;44.70
67141;DHT22;54058;52.010;5.546;2023-04-03T12:04:11;10.80;40.10
67141;DHT22;54058;52.010;5.546;2023-04-03T12:09:10;10.80;40.20
67141;DHT22;54058;52.010;5.546;2023-04-03T12:11:46;10.80;39.90
67141;DHT22;54058;52.010;5.546;2023-04-03T12:14:15;10.90;44.40
67141;DHT22;54058;52.010;5.546;2023-04-03T12:16:46;10.90;38.50
67141;DHT22;54058;52.010;5.546;2023-04-03T12:26:43;10.80;40.10
67141;DHT22;54058;52.010;5.546;2023-04-03T12:40:07;11.00;42.10
67141;DHT22;54058;52.010;5.546;2023-04-03T12:45:15;11.00;43.50
67141;DHT22;54058;52.010;5.546;2023-04-03T12:47:42;11.10;39.70
67141;DHT22;54058;52.010;5.546;2023-04-03T12:50:16;11.10;38.00
67141;DHT22;54058;52.010;5.546;2023-04-03T12:52:45;10.80;38.10
67141;DHT22;54058;52.010;5.546;2023-04-03T12:55:16;10.70;39.00
67141;DHT22;54058;52.010;5.546;2023-04-03T12:57:42;10.60;39.30
67141;DHT22;54058;52.010;5.546;2023-04-03T13:02:46;10.50;40.50
67141;DHT22;54058;52.010;5.546;2023-04-03T13:05:16;10.50;41.40
67141;DHT22;54058;52.010;5.546;2023-04-03T13:07:42;10.50;42.30
67141;DHT22;54058;52.010;5.546;2023-04-03T13:12:35;10.60;45.40
67141;DHT22;54058;52.010;5.546;2023-04-03T13:15:03;10.60;42.20
67141;DHT22;54058;52.010;5.546;2023-04-03T13:17:38;10.60;42.00
67141;DHT22;54058;52.010;5.546;2023-04-03T13:20:37;10.60;43.80
67141;DHT22;54058;52.010;5.546;2023-04-03T13:22:57;10.50;40.90
67141;DHT22;54058;52.010;5.546;2023-04-03T13:25:23;10.50;38.80
67141;DHT22;54058;52.010;5.546;2023-04-03T13:27:49;10.50;44.70
67141;DHT22;54058;52.010;5.546;2023-04-03T13:32:54;10.40;40.80
67141;DHT22;54058;52.010;5.546;2023-04-03T13:35:35;10.50;41.70
67141;DHT22;54058;52.010;5.546;2023-04-03T13:38:02;10.50;42.30
67141;DHT22;54058;52.010;5.546;2023-04-03T13:40:28;10.60;43.70
67141;DHT22;54058;52.010;5.546;2023-04-03T13:45:54;10.60;46.50
67141;DHT22;54058;52.010;5.546;2023-04-03T13:48:20;10.70;42.30
67141;DHT22;54058;52.010;5.546;2023-04-03T13:53:19;10.60;42.30
67141;DHT22;54058;52.010;5.546;2023-04-03T13:58:37;10.70;46.00
67141;DHT22;54058;52.010;5.546;2023-04-03T14:01:11;10.80;42.20
67141;DHT22;54058;52.010;5.546;2023-04-03T14:03:45;10.80;44.60
67141;DHT22;54058;52.010;5.546;2023-04-03T14:06:12;10.70;43.30
67141;DHT22;54058;52.010;5.546;2023-04-03T14:08:38;10.70;42.00
67141;DHT22;54058;52.010;5.546;2023-04-03T14:11:04;10.70;46.80
67141;DHT22;54058;52.010;5.546;2023-04-03T14:13:30;10.70;43.90
67141;DHT22;54058;52.010;5.546;2023-04-03T14:15:55;10.70;48.30
67141;DHT22;54058;52.010;5.546;2023-04-03T14:18:21;10.60;41.40
67141;DHT22;54058;52.010;5.546;2023-04-03T14:20:47;10.60;43.70
67141;DHT22;54058;52.010;5.546;2023-04-03T14:23:13;10.70;42.00
67141;DHT22;54058;52.010;5.546;2023-04-03T14:25:39;10.70;47.90
67141;DHT22;54058;52.010;5.546;2023-04-03T14:28:16;10.70;44.60
67141;DHT22;54058;52.010;5.546;2023-04-03T14:30:42;10.60;42.30
67141;DHT22;54058;52.010;5.546;2023-04-03T14:33:10;10.60;43.80
67141;DHT22;54058;52.010;5.546;2023-04-03T14:35:36;10.70;43.50
67141;DHT22;54058;52.010;5.546;2023-04-03T14:38:02;10.70;45.40
67141;DHT22;54058;52.010;5.546;2023-04-03T14:40:27;10.60;44.40
67141;DHT22;54058;52.010;5.546;2023-04-03T14:42:53;10.60;44.20
67141;DHT22;54058;52.010;5.546;2023-04-03T14:45:21;10.50;42.10
67141;DHT22;54058;52.010;5.546;2023-04-03T14:50:17;10.60;45.80
67141;DHT22;54058;52.010;5.546;2023-04-03T14:52:43;10.70;44.50
67141;DHT22;54058;52.010;5.546;2023-04-03T14:55:11;10.60;42.00
67141;DHT22;54058;52.010;5.546;2023-04-03T14:57:37;10.50;42.50
67141;DHT22;54058;52.010;5.546;2023-04-03T15:00:03;10.50;46.20
67141;DHT22;54058;52.010;5.546;2023-04-03T15:02:30;10.50;43.20
67141;DHT22;54058;52.010;5.546;2023-04-03T15:04:56;10.40;44.10
67141;DHT22;54058;52.010;5.546;2023-04-03T15:07:22;10.30;40.70
67141;DHT22;54058;52.010;5.546;2023-04-03T15:09:51;10.30;42.70
67141;DHT22;54058;52.010;5.546;2023-04-03T15:12:17;10.30;47.90
67141;DHT22;54058;52.010;5.546;2023-04-03T15:14:42;10.30;42.80
67141;DHT22;54058;52.010;5.546;2023-04-03T15:17:10;10.20;44.50
67141;DHT22;54058;52.010;5.546;2023-04-03T15:19:38;10.20;44.00
67141;DHT22;54058;52.010;5.546;2023-04-03T15:22:04;10.20;49.10
67141;DHT22;54058;52.010;5.546;2023-04-03T15:24:29;10.20;45.90
67141;DHT22;54058;52.010;5.546;2023-04-03T15:26:55;10.30;45.00
67141;DHT22;54058;52.010;5.546;2023-04-03T15:29:20;10.20;47.70
67141;DHT22;54058;52.010;5.546;2023-04-03T15:31:46;10.20;42.40
67141;DHT22;54058;52.010;5.546;2023-04-03T15:34:11;10.10;43.70
67141;DHT22;54058;52.010;5.546;2023-04-03T15:36:37;10.10;44.20
67141;DHT22;54058;52.010;5.546;2023-04-03T15:39:02;10.10;50.00
67141;DHT22;54058;52.010;5.546;2023-04-03T15:41:28;10.10;42.90
67141;DHT22;54058;52.010;5.546;2023-04-03T15:43:53;10.10;44.50
67141;DHT22;54058;52.010;5.546;2023-04-03T15:46:19;10.00;46.60
67141;DHT22;54058;52.010;5.546;2023-04-03T15:48:44;10.00;45.80
67141;DHT22;54058;52.010;5.546;2023-04-03T15:51:10;10.00;48.10
67141;DHT22;54058;52.010;5.546;2023-04-03T15:53:36;10.00;46.50
67141;DHT22;54058;52.010;5.546;2023-04-03T15:56:01;9.90;45.00
67141;DHT22;54058;52.010;5.546;2023-04-03T15:58:27;9.90;45.60
67141;DHT22;54058;52.010;5.546;2023-04-03T16:00:52;9.90;46.30
67141;DHT22;54058;52.010;5.546;2023-04-03T16:03:18;9.90;44.80
67141;DHT22;54058;52.010;5.546;2023-04-03T16:05:45;9.90;46.50
67141;DHT22;54058;52.010;5.546;2023-04-03T16:08:10;9.90;45.50
67141;DHT22;54058;52.010;5.546;2023-04-03T16:10:37;9.90;47.10
67141;DHT22;54058;52.010;5.546;2023-04-03T16:13:03;9.80;48.30
67141;DHT22;54058;52.010;5.546;2023-04-03T16:15:29;9.80;49.40
67141;DHT22;54058;52.010;5.546;2023-04-03T16:17:55;9.70;47.80
67141;DHT22;54058;52.010;5.546;2023-04-03T16:20:22;9.70;49.70
67141;DHT22;54058;52.010;5.546;2023-04-03T16:22:48;9.70;47.20
67141;DHT22;54058;52.010;5.546;2023-04-03T16:25:14;9.70;49.00
67141;DHT22;54058;52.010;5.546;2023-04-03T16:27:40;9.70;47.40
67141;DHT22;54058;52.010;5.546;2023-04-03T16:30:05;9.60;47.30
67141;DHT22;54058;52.010;5.546;2023-04-03T16:32:31;9.70;48.90
67141;DHT22;54058;52.010;5.546;2023-04-03T16:34:57;9.70;50.40
67141;DHT22;54058;52.010;5.546;2023-04-03T16:37:23;9.60;45.90
67141;DHT22;54058;52.010;5.546;2023-04-03T16:39:48;9.60;48.50
67141;DHT22;54058;52.010;5.546;2023-04-03T16:42:14;9.60;48.70
67141;DHT22;54058;52.010;5.546;2023-04-03T16:44:40;9.50;49.70
67141;DHT22;54058;52.010;5.546;2023-04-03T16:47:06;9.50;47.60
67141;DHT22;54058;52.010;5.546;2023-04-03T16:49:33;9.40;48.50
67141;DHT22;54058;52.010;5.546;2023-04-03T16:51:59;9.40;49.00
67141;DHT22;54058;52.010;5.546;2023-04-03T16:54:25;9.40;48.80
67141;DHT22;54058;52.010;5.546;2023-04-03T16:56:51;9.30;47.90
67141;DHT22;54058;52.010;5.546;2023-04-03T16:59:16;9.30;50.20
67141;DHT22;54058;52.010;5.546;2023-04-03T17:01:42;9.30;49.10
67141;DHT22;54058;52.010;5.546;2023-04-03T17:04:07;9.30;51.20
67141;DHT22;54058;52.010;5.546;2023-04-03T17:06:33;9.20;51.60
67141;DHT22;54058;52.010;5.546;2023-04-03T17:08:58;9.20;48.60
67141;DHT22;54058;52.010;5.546;2023-04-03T17:11:24;9.20;50.00
67141;DHT22;54058;52.010;5.546;2023-04-03T17:13:50;9.10;50.00